Time;durP1;ratioP1;P1;durP2;ratioP2;P2;SDS_P1;SDS_P2;PMS_P1;PMS_P2;Temp;Humidity;BMP_temperature;BMP_pressure;BME280_temperature;BME280_humidity;BME280_pressure;Samples;Min_cycle;Max_cycle;Signal;HPM_P1;HPM_P2
2023/12/07 00:01:22;;;;;;;;;;;;;;;;;;5074005;28;19924;-81
2023/12/07 00:03:48;;;;;;;;;;;;;;;;;;5073357;28;20406;-81
2023/12/07 00:06:14;;;;;;;;;;;;;;;;;;5073241;28;19993;-81
2023/12/07 00:08:40;;;;;;;;;;;;;;;;;;5074219;28;19932;-81
2023/12/07 00:11:07;;;;;;;;;;;;;;;;;;5073532;28;19978;-81
2023/12/07 00:13:33;;;;;;;;;;;;;;;;;;5072298;28;19990;-80
2023/12/07 00:16:00;;;;;;;;;;;;;;;;;;5073171;28;20050;-81
2023/12/07 00:18:26;;;;;;;;;;;;;;;;;;5073831;28;20363;-81
2023/12/07 00:20:52;;;;;;;;;;;;;;;;;;5073833;28;19957;-82
2023/12/07 00:23:18;;;;;;;;;;;;;;;;;;5073275;28;19932;-81
2023/12/07 00:25:45;;;;;;;;;;;;;;;;;;5073265;28;19986;-84
2023/12/07 00:28:12;;;;;;;;;;;;;;;;;;5073318;28;19928;-85
2023/12/07 00:30:38;;;;;;;;;;;;;;;;;;5073683;28;19931;-86
2023/12/07 00:33:04;;;;;;;;;;;;;;;;;;5074354;28;20061;-85
2023/12/07 00:35:30;;;;;;;;;;;;;;;;;;5067107;28;19935;-86
2023/12/07 00:37:57;;;;;;;;;;;;;;;;;;5074227;28;20315;-86
2023/12/07 00:40:23;;;;;;;;;;;;;;;;;;5074393;28;20023;-85
2023/12/07 00:42:49;;;;;;;;;;;;;;;;;;5074735;28;19924;-86
2023/12/07 00:45:15;;;;;;;;;;;;;;;;;;5072019;28;19928;-85
2023/12/07 00:47:42;;;;;;;;;;;;;;;;;;5074680;28;20506;-86
2023/12/07 00:50:08;;;;;;;;;;;;;;;;;;5074455;28;19991;-86
2023/12/07 00:52:34;;;;;;;;;;;;;;;;;;5074426;28;19928;-85
2023/12/07 00:55:00;;;;;;;;;;;;;;;;;;5074121;28;19924;-85
2023/12/07 00:57:27;;;;;;;;;;;;;;;;;;5072473;28;19987;-86
2023/12/07 00:59:53;;;;;;;;;;;;;;;;;;5073887;28;20015;-80
2023/12/07 01:02:19;;;;;;;;;;;;;;;;;;5071161;28;20346;-80
2023/12/07 01:04:46;;;;;;;;;;;;;;;;;;5073086;28;19956;-80
2023/12/07 01:07:12;;;;;;;;;;;;;;;;;;5071784;28;19925;-80
2023/12/07 01:09:39;;;;;;;;;;;;;;;;;;5073050;28;20009;-80
2023/12/07 01:12:05;;;;;;;;;;;;;;;;;;5072285;28;19928;-83
2023/12/07 01:14:32;;;;;;;;;;;;;;;;;;5071486;28;20346;-83
2023/12/07 01:16:58;;;;;;;;;;;;;;;;;;5071804;28;20449;-83
2023/12/07 01:19:25;;;;;;;;;;;;;;;;;;5071169;28;19925;-83
2023/12/07 01:21:51;;;;;;;;;;;;;;;;;;5072659;28;19928;-84
2023/12/07 01:24:17;;;;;;;;;;;;;;;;;;5072102;28;19925;-82
2023/12/07 01:26:43;;;;;;;;;;;;;;;;;;5072036;28;19929;-82
2023/12/07 01:29:10;;;;;;;;;;;;;;;;;;5072340;28;19974;-83
2023/12/07 01:31:36;;;;;;;;;;;;;;;;;;5072595;28;19932;-83
2023/12/07 01:34:02;;;;;;;;;;;;;;;;;;5071902;28;19925;-83
2023/12/07 01:36:28;;;;;;;;;;;;;;;;;;5071408;28;19924;-83
2023/12/07 01:38:55;;;;;;;;;;;;;;;;;;5071331;28;19952;-83
2023/12/07 01:41:21;;;;;;;;;;;;;;;;;;5071477;28;19936;-83
2023/12/07 01:43:47;;;;;;;;;;;;;;;;;;5072591;28;19928;-83
2023/12/07 01:46:14;;;;;;;;;;;;;;;;;;5071760;28;19978;-83
2023/12/07 01:48:40;;;;;;;;;;;;;;;;;;5071303;28;19939;-83
2023/12/07 01:51:06;;;;;;;;;;;;;;;;;;5070370;28;19932;-83
2023/12/07 01:53:33;;;;;;;;;;;;;;;;;;5071586;28;19925;-83
2023/12/07 01:55:59;;;;;;;;;;;;;;;;;;5071770;28;20375;-83
2023/12/07 01:58:25;;;;;;;;;;;;;;;;;;5071346;28;19924;-83
2023/12/07 02:00:52;;;;;;;;;;;;;;;;;;5071800;28;19973;-84
2023/12/07 02:03:18;;;;;;;;;;;;;;;;;;5071326;28;19924;-84
2023/12/07 02:05:44;;;;;;;;;;;;;;;;;;5072027;28;20384;-84
2023/12/07 02:08:11;;;;;;;;;;;;;;;;;;5069348;28;20483;-83
2023/12/07 02:10:37;;;;;;;;;;;;;;;;;;5070954;28;19929;-84
2023/12/07 02:13:04;;;;;;;;;;;;;;;;;;5071639;28;19978;-83
2023/12/07 02:15:30;;;;;;;;;;;;;;;;;;5064563;28;19924;-83
2023/12/07 02:17:56;;;;;;;;;;;;;;;;;;5072244;28;19939;-90
2023/12/07 02:20:23;;;;;;;;;;;;;;;;;;5070434;28;19932;-83
2023/12/07 02:22:49;;;;;;;;;;;;;;;;;;5072485;28;19933;-81
2023/12/07 02:25:15;;;;;;;;;;;;;;;;;;5071571;28;19955;-82
2023/12/07 02:27:41;;;;;;;;;;;;;;;;;;5070723;28;20357;-81
2023/12/07 02:30:08;;;;;;;;;;;;;;;;;;5070767;28;19966;-79
2023/12/07 02:32:34;;;;;;;;;;;;;;;;;;5071491;28;19924;-80
2023/12/07 02:35:01;;;;;;;;;;;;;;;;;;5071122;28;20026;-80
2023/12/07 02:37:27;;;;;;;;;;;;;;;;;;5071345;28;19936;-81
2023/12/07 02:39:53;;;;;;;;;;;;;;;;;;5070510;28;19931;-80
2023/12/07 02:42:19;;;;;;;;;;;;;;;;;;5070672;28;19928;-79
2023/12/07 02:44:46;;;;;;;;;;;;;;;;;;5069870;28;19924;-78
2023/12/07 02:47:12;;;;;;;;;;;;;;;;;;5070605;28;19924;-81
2023/12/07 02:49:38;;;;;;;;;;;;;;;;;;5069387;28;19932;-80
2023/12/07 02:52:04;;;;;;;;;;;;;;;;;;5070620;28;19928;-80
2023/12/07 02:54:31;;;;;;;;;;;;;;;;;;5071274;28;19925;-81
2023/12/07 02:56:57;;;;;;;;;;;;;;;;;;5071031;28;20397;-81
2023/12/07 02:59:23;;;;;;;;;;;;;;;;;;5070951;28;19950;-81
2023/12/07 03:01:50;;;;;;;;;;;;;;;;;;5070208;28;19970;-80
2023/12/07 03:04:16;;;;;;;;;;;;;;;;;;5070510;28;19944;-82
2023/12/07 03:06:42;;;;;;;;;;;;;;;;;;5070011;28;20380;-82
2023/12/07 03:09:08;;;;;;;;;;;;;;;;;;5070511;28;19928;-82
2023/12/07 03:11:35;;;;;;;;;;;;;;;;;;5070482;28;19933;-79
2023/12/07 03:14:01;;;;;;;;;;;;;;;;;;5070474;28;19982;-80
2023/12/07 03:16:27;;;;;;;;;;;;;;;;;;5069281;28;20384;-80
2023/12/07 03:18:53;;;;;;;;;;;;;;;;;;5070848;28;19924;-79
2023/12/07 03:21:20;;;;;;;;;;;;;;;;;;5072361;28;19931;-79
2023/12/07 03:23:46;;;;;;;;;;;;;;;;;;5075043;28;19930;-82
2023/12/07 03:26:12;;;;;;;;;;;;;;;;;;5073711;28;19974;-81
2023/12/07 03:28:38;;;;;;;;;;;;;;;;;;5073942;28;19924;-79
2023/12/07 03:31:05;;;;;;;;;;;;;;;;;;5074616;28;19924;-82
2023/12/07 03:33:31;;;;;;;;;;;;;;;;;;5072527;28;20389;-82
2023/12/07 03:35:57;;;;;;;;;;;;;;;;;;5072782;28;19978;-82
2023/12/07 03:38:23;;;;;;;;;;;;;;;;;;5073551;28;19928;-81
2023/12/07 03:40:50;;;;;;;;;;;;;;;;;;5073652;28;19928;-82
2023/12/07 03:43:16;;;;;;;;;;;;;;;;;;5072685;28;19928;-82
2023/12/07 03:45:43;;;;;;;;;;;;;;;;;;5074380;28;19924;-81
2023/12/07 03:48:09;;;;;;;;;;;;;;;;;;5074299;28;19981;-81
2023/12/07 03:50:35;;;;;;;;;;;;;;;;;;5073264;28;20371;-82
2023/12/07 03:53:02;;;;;;;;;;;;;;;;;;5073249;28;20446;-81
2023/12/07 03:55:28;;;;;;;;;;;;;;;;;;5073758;28;19928;-80
2023/12/07 03:57:54;;;;;;;;;;;;;;;;;;5074163;28;19928;-80
2023/12/07 04:00:21;;;;;;;;;;;;;;;;;;5074174;28;19977;-80
2023/12/07 04:02:47;;;;;;;;;;;;;;;;;;5073172;28;20506;-80
2023/12/07 04:05:14;;;;;;;;;;;;;;;;;;5072020;28;19924;-80
2023/12/07 04:07:41;;;;;;;;;;;;;;;;;;5071378;28;19935;-80
2023/12/07 04:10:07;;;;;;;;;;;;;;;;;;5073239;28;19932;-81
2023/12/07 04:12:33;;;;;;;;;;;;;;;;;;5073130;28;20015;-80
2023/12/07 04:15:00;;;;;;;;;;;;;;;;;;5072768;28;19978;-81
2023/12/07 04:17:26;;;;;;;;;;;;;;;;;;5072381;28;19928;-81
2023/12/07 04:19:52;;;;;;;;;;;;;;;;;;5073483;28;19936;-81
2023/12/07 04:22:18;;;;;;;;;;;;;;;;;;5073091;28;19978;-81
2023/12/07 04:24:45;;;;;;;;;;;;;;;;;;5071432;28;19954;-81
2023/12/07 04:27:11;;;;;;;;;;;;;;;;;;5073343;28;19932;-81
2023/12/07 04:29:37;;;;;;;;;;;;;;;;;;5072068;28;19933;-81
2023/12/07 04:32:03;;;;;;;;;;;;;;;;;;5072389;28;19928;-81
2023/12/07 04:34:30;;;;;;;;;;;;;;;;;;5071648;28;20377;-81
2023/12/07 04:36:56;;;;;;;;;;;;;;;;;;5072854;28;20013;-81
2023/12/07 04:39:22;;;;;;;;;;;;;;;;;;5072661;28;20449;-81
2023/12/07 04:41:49;;;;;;;;;;;;;;;;;;5072106;28;19924;-81
2023/12/07 04:44:15;;;;;;;;;;;;;;;;;;5072203;28;19932;-81
2023/12/07 04:46:41;;;;;;;;;;;;;;;;;;5072768;28;19935;-81
2023/12/07 04:49:08;;;;;;;;;;;;;;;;;;5073589;28;19974;-80
2023/12/07 04:51:34;;;;;;;;;;;;;;;;;;5073238;28;19929;-81
2023/12/07 04:54:00;;;;;;;;;;;;;;;;;;5072981;28;19924;-81
2023/12/07 04:56:26;;;;;;;;;;;;;;;;;;5071771;28;20653;-81
2023/12/07 04:58:53;;;;;;;;;;;;;;;;;;5071922;28;19928;-81
2023/12/07 05:01:19;;;;;;;;;;;;;;;;;;5072710;28;19928;-81
2023/12/07 05:03:45;;;;;;;;;;;;;;;;;;5073193;28;19956;-79
2023/12/07 05:06:12;;;;;;;;;;;;;;;;;;5072180;28;19985;-79
2023/12/07 05:08:38;;;;;;;;;;;;;;;;;;5072013;28;20403;-79
2023/12/07 05:11:05;;;;;;;;;;;;;;;;;;5073392;28;19925;-79
2023/12/07 05:13:33;;;;;;;;;;;;;;;;;;5072833;28;19924;-82
2023/12/07 05:15:59;;;;;;;;;;;;;;;;;;5070885;28;20526;-82
2023/12/07 05:18:26;;;;;;;;;;;;;;;;;;5071380;28;20001;-81
2023/12/07 05:20:52;;;;;;;;;;;;;;;;;;5071101;28;19924;-79
2023/12/07 05:23:18;;;;;;;;;;;;;;;;;;5072135;28;19986;-79
2023/12/07 05:25:44;;;;;;;;;;;;;;;;;;5070718;28;19977;-78
2023/12/07 05:28:11;;;;;;;;;;;;;;;;;;5071140;28;19935;-79
2023/12/07 05:30:37;;;;;;;;;;;;;;;;;;5071500;28;20323;-79
2023/12/07 05:33:03;;;;;;;;;;;;;;;;;;5070440;28;19990;-80
2023/12/07 05:35:30;;;;;;;;;;;;;;;;;;5071307;28;19924;-80
2023/12/07 05:37:56;;;;;;;;;;;;;;;;;;5070440;28;19924;-79
2023/12/07 05:40:23;;;;;;;;;;;;;;;;;;5071609;28;19928;-79
2023/12/07 05:42:49;;;;;;;;;;;;;;;;;;5070949;28;19924;-79
2023/12/07 05:45:15;;;;;;;;;;;;;;;;;;5070718;28;19924;-79
2023/12/07 05:47:42;;;;;;;;;;;;;;;;;;5069480;28;19973;-79
2023/12/07 05:50:08;;;;;;;;;;;;;;;;;;5068688;28;19940;-81
2023/12/07 05:52:34;;;;;;;;;;;;;;;;;;5068764;28;20015;-76
2023/12/07 05:55:01;;;;;;;;;;;;;;;;;;5071772;28;19933;-76
2023/12/07 05:57:27;;;;;;;;;;;;;;;;;;5070356;28;20003;-75
2023/12/07 05:59:53;;;;;;;;;;;;;;;;;;5071660;28;20462;-82
2023/12/07 06:02:19;;;;;;;;;;;;;;;;;;5071848;28;19939;-88
2023/12/07 06:04:46;;;;;;;;;;;;;;;;;;5070690;28;20032;-85
2023/12/07 06:07:12;;;;;;;;;;;;;;;;;;5071047;28;19929;-86
2023/12/07 06:09:39;;;;;;;;;;;;;;;;;;5071096;28;20015;-87
2023/12/07 06:12:05;;;;;;;;;;;;;;;;;;5071937;28;20362;-85
2023/12/07 06:14:32;;;;;;;;;;;;;;;;;;5069836;28;19928;-83
2023/12/07 06:16:59;;;;;;;;;;;;;;;;;;5067912;28;19928;-84
2023/12/07 06:19:25;;;;;;;;;;;;;;;;;;5071309;28;19947;-83
2023/12/07 06:21:51;;;;;;;;;;;;;;;;;;5071016;28;19958;-84
2023/12/07 06:24:17;;;;;;;;;;;;;;;;;;5071283;28;20431;-84
2023/12/07 06:26:44;;;;;;;;;;;;;;;;;;5068812;28;19925;-84
2023/12/07 06:29:10;;;;;;;;;;;;;;;;;;5075659;28;19960;-84
2023/12/07 06:31:36;;;;;;;;;;;;;;;;;;5064769;28;19929;-84
2023/12/07 06:34:03;;;;;;;;;;;;;;;;;;5070635;28;19924;-83
2023/12/07 06:36:29;;;;;;;;;;;;;;;;;;5071279;28;19932;-84
2023/12/07 06:38:55;;;;;;;;;;;;;;;;;;5070278;28;19936;-84
2023/12/07 06:41:22;;;;;;;;;;;;;;;;;;5071155;28;20015;-84
2023/12/07 06:43:48;;;;;;;;;;;;;;;;;;5071765;28;19924;-84
2023/12/07 06:46:16;;;;;;;;;;;;;;;;;;5071518;28;19929;-83
2023/12/07 06:48:42;;;;;;;;;;;;;;;;;;5067108;28;19968;-82
2023/12/07 06:51:08;;;;;;;;;;;;;;;;;;5064712;28;20423;-84
2023/12/07 06:53:35;;;;;;;;;;;;;;;;;;5071803;28;19925;-84
2023/12/07 06:56:01;;;;;;;;;;;;;;;;;;5069357;28;19932;-85
2023/12/07 06:58:27;;;;;;;;;;;;;;;;;;5071817;28;19925;-84
2023/12/07 07:00:53;;;;;;;;;;;;;;;;;;5065330;28;21585;-84
2023/12/07 07:03:20;;;;;;;;;;;;;;;;;;5070847;28;19928;-84
2023/12/07 07:05:46;;;;;;;;;;;;;;;;;;5070234;28;19982;-84
2023/12/07 07:08:12;;;;;;;;;;;;;;;;;;5070586;28;20397;-84
2023/12/07 07:10:38;;;;;;;;;;;;;;;;;;5067531;28;20034;-83
2023/12/07 07:13:05;;;;;;;;;;;;;;;;;;5070791;28;19929;-84
2023/12/07 07:15:31;;;;;;;;;;;;;;;;;;5072225;28;19929;-84
2023/12/07 07:17:57;;;;;;;;;;;;;;;;;;5072246;28;20576;-84
2023/12/07 07:20:24;;;;;;;;;;;;;;;;;;5071113;28;19924;-84
2023/12/07 07:22:50;;;;;;;;;;;;;;;;;;5072007;28;19924;-83
2023/12/07 07:25:19;;;;;;;;;;;;;;;;;;5072338;28;19932;-84
2023/12/07 07:27:45;;;;;;;;;;;;;;;;;;5072173;28;19983;-84
2023/12/07 07:30:11;;;;;;;;;;;;;;;;;;5071766;28;20092;-85
2023/12/07 07:32:37;;;;;;;;;;;;;;;;;;5063772;28;19929;-85
2023/12/07 07:35:04;;;;;;;;;;;;;;;;;;5066719;28;19924;-85
2023/12/07 07:37:30;;;;;;;;;;;;;;;;;;5071874;28;20293;-86
2023/12/07 07:39:56;;;;;;;;;;;;;;;;;;5069505;28;19934;-86
2023/12/07 07:42:22;;;;;;;;;;;;;;;;;;5071202;28;19932;-86
2023/12/07 07:44:49;;;;;;;;;;;;;;;;;;5071876;28;19951;-86
2023/12/07 07:47:15;;;;;;;;;;;;;;;;;;5071933;28;19932;-86
2023/12/07 07:49:41;;;;;;;;;;;;;;;;;;5072016;28;19928;-86
2023/12/07 07:52:08;;;;;;;;;;;;;;;;;;5067988;28;21236;-86
2023/12/07 07:54:34;;;;;;;;;;;;;;;;;;5071328;28;19931;-86
2023/12/07 07:57:00;;;;;;;;;;;;;;;;;;5071974;28;20339;-86
2023/12/07 07:59:27;;;;;;;;;;;;;;;;;;5071917;28;19932;-81
2023/12/07 08:01:53;;;;;;;;;;;;;;;;;;5070729;28;19929;-81
2023/12/07 08:04:19;;;;;;;;;;;;;;;;;;5071116;28;19925;-83
2023/12/07 08:06:45;;;;;;;;;;;;;;;;;;5071543;28;20344;-82
2023/12/07 08:09:12;;;;;;;;;;;;;;;;;;5075240;28;19963;-81
2023/12/07 08:11:38;;;;;;;;;;;;;;;;;;5074557;28;19924;-81
2023/12/07 08:14:04;;;;;;;;;;;;;;;;;;5073913;28;20403;-81
2023/12/07 08:16:30;;;;;;;;;;;;;;;;;;5074347;28;19924;-81
2023/12/07 08:18:58;;;;;;;;;;;;;;;;;;5074698;28;19928;-82
2023/12/07 08:21:25;;;;;;;;;;;;;;;;;;5074812;28;20300;-81
2023/12/07 08:23:51;;;;;;;;;;;;;;;;;;5073487;28;19935;-83
2023/12/07 08:26:17;;;;;;;;;;;;;;;;;;5074323;28;19925;-83
2023/12/07 08:28:44;;;;;;;;;;;;;;;;;;5074495;28;20315;-83
2023/12/07 08:31:10;;;;;;;;;;;;;;;;;;5074686;28;19971;-84
2023/12/07 08:33:38;;;;;;;;;;;;;;;;;;5074090;28;19928;-83
2023/12/07 08:36:04;;;;;;;;;;;;;;;;;;5074330;28;19924;-84
2023/12/07 08:38:31;;;;;;;;;;;;;;;;;;5071309;28;19932;-83
2023/12/07 08:40:57;;;;;;;;;;;;;;;;;;5073784;28;19973;-83
2023/12/07 08:43:24;;;;;;;;;;;;;;;;;;5073760;28;19931;-83
2023/12/07 08:45:50;;;;;;;;;;;;;;;;;;5074344;28;19924;-83
2023/12/07 08:48:16;;;;;;;;;;;;;;;;;;5074115;28;20383;-84
2023/12/07 08:50:42;;;;;;;;;;;;;;;;;;5074444;28;19928;-84
2023/12/07 08:53:09;;;;;;;;;;;;;;;;;;5074393;28;19928;-83
2023/12/07 08:55:35;;;;;;;;;;;;;;;;;;5073230;28;20315;-81
2023/12/07 08:58:03;;;;;;;;;;;;;;;;;;5070586;28;19939;-82
2023/12/07 09:00:30;;;;;;;;;;;;;;;;;;5071103;28;19928;-82
2023/12/07 09:02:56;;;;;;;;;;;;;;;;;;5073525;28;19981;-83
2023/12/07 09:05:22;;;;;;;;;;;;;;;;;;5072715;28;19924;-82
2023/12/07 09:07:48;;;;;;;;;;;;;;;;;;5073230;28;20372;-82
2023/12/07 09:10:15;;;;;;;;;;;;;;;;;;5057265;28;19994;-82
2023/12/07 09:12:41;;;;;;;;;;;;;;;;;;5073308;28;19936;-83
2023/12/07 09:15:09;;;;;;;;;;;;;;;;;;5072931;28;19950;-82
2023/12/07 09:17:35;;;;;;;;;;;;;;;;;;5072293;28;20289;-82
2023/12/07 09:20:02;;;;;;;;;;;;;;;;;;5073014;28;19928;-82
2023/12/07 09:22:27;;;;;;;;;;;;;;;;;;5073063;28;20035;-83
2023/12/07 09:24:53;;;;;;;;;;;;;;;;;;5072096;28;20420;-82
2023/12/07 09:27:20;;;;;;;;;;;;;;;;;;5073177;28;19978;-83
2023/12/07 09:29:47;;;;;;;;;;;;;;;;;;5073275;28;19928;-82
2023/12/07 09:32:13;;;;;;;;;;;;;;;;;;5072954;28;19924;-82
2023/12/07 09:34:39;;;;;;;;;;;;;;;;;;5073268;28;19930;-82
2023/12/07 09:37:05;;;;;;;;;;;;;;;;;;5071687;28;19925;-82
2023/12/07 09:39:32;;;;;;;;;;;;;;;;;;5072372;28;19932;-83
2023/12/07 09:41:58;;;;;;;;;;;;;;;;;;5073074;28;19924;-82
2023/12/07 09:44:24;;;;;;;;;;;;;;;;;;5073188;28;19979;-82
2023/12/07 09:46:50;;;;;;;;;;;;;;;;;;5072206;28;20351;-82
2023/12/07 09:49:17;;;;;;;;;;;;;;;;;;5072729;28;19929;-82
2023/12/07 09:51:43;;;;;;;;;;;;;;;;;;5072649;28;19928;-82
2023/12/07 09:54:10;;;;;;;;;;;;;;;;;;5072516;28;19939;-82
2023/12/07 09:56:36;;;;;;;;;;;;;;;;;;5072028;28;19932;-82
2023/12/07 09:59:03;;;;;;;;;;;;;;;;;;5071932;28;20328;-83
2023/12/07 10:01:29;;;;;;;;;;;;;;;;;;5073075;28;19931;-82
2023/12/07 10:03:55;;;;;;;;;;;;;;;;;;5072739;28;19925;-83
2023/12/07 10:06:21;;;;;;;;;;;;;;;;;;5071763;28;19974;-82
2023/12/07 10:08:48;;;;;;;;;;;;;;;;;;5072255;28;19924;-82
2023/12/07 10:11:15;;;;;;;;;;;;;;;;;;5072584;28;19947;-83
2023/12/07 10:13:41;;;;;;;;;;;;;;;;;;5072560;28;19929;-82
2023/12/07 10:16:09;;;;;;;;;;;;;;;;;;5072610;28;20007;-82
2023/12/07 10:18:35;;;;;;;;;;;;;;;;;;5071890;28;20011;-83
2023/12/07 10:21:02;;;;;;;;;;;;;;;;;;5072228;28;19971;-83
2023/12/07 10:23:31;;;;;;;;;;;;;;;;;;5072126;28;19925;-83
2023/12/07 10:25:57;;;;;;;;;;;;;;;;;;5072284;28;20343;-83
2023/12/07 10:28:24;;;;;;;;;;;;;;;;;;5071354;28;19925;-82
2023/12/07 10:30:50;;;;;;;;;;;;;;;;;;5071462;28;19974;-83
2023/12/07 10:33:16;;;;;;;;;;;;;;;;;;5070996;28;19932;-81
2023/12/07 10:35:42;;;;;;;;;;;;;;;;;;5071031;28;20341;-82
2023/12/07 10:38:09;;;;;;;;;;;;;;;;;;5071029;28;19932;-82
2023/12/07 10:40:35;;;;;;;;;;;;;;;;;;5072183;28;19925;-82
2023/12/07 10:43:01;;;;;;;;;;;;;;;;;;5068510;28;19981;-82
2023/12/07 10:45:28;;;;;;;;;;;;;;;;;;5069419;28;19928;-83
2023/12/07 10:47:55;;;;;;;;;;;;;;;;;;5071307;28;19978;-80
2023/12/07 10:50:21;;;;;;;;;;;;;;;;;;5071556;28;19932;-82
2023/12/07 10:52:47;;;;;;;;;;;;;;;;;;5072328;28;20391;-82
2023/12/07 10:55:14;;;;;;;;;;;;;;;;;;5072390;28;19977;-82
2023/12/07 10:57:40;;;;;;;;;;;;;;;;;;5072317;28;20018;-85
2023/12/07 11:00:07;;;;;;;;;;;;;;;;;;5068096;28;20011;-84
2023/12/07 11:02:33;;;;;;;;;;;;;;;;;;5069338;28;20254;-83
2023/12/07 11:04:59;;;;;;;;;;;;;;;;;;5071804;28;19986;-84
2023/12/07 11:07:25;;;;;;;;;;;;;;;;;;5071459;28;19982;-84
2023/12/07 11:09:52;;;;;;;;;;;;;;;;;;5070239;28;19929;-85
2023/12/07 11:12:18;;;;;;;;;;;;;;;;;;5071144;28;19970;-84
2023/12/07 11:14:44;;;;;;;;;;;;;;;;;;5069548;28;19962;-84
2023/12/07 11:17:11;;;;;;;;;;;;;;;;;;5072244;28;19943;-85
2023/12/07 11:19:39;;;;;;;;;;;;;;;;;;5069541;28;20372;-85
2023/12/07 11:22:06;;;;;;;;;;;;;;;;;;5071683;28;20285;-85
2023/12/07 11:24:32;;;;;;;;;;;;;;;;;;5072382;28;19970;-85
2023/12/07 11:26:58;;;;;;;;;;;;;;;;;;5070741;28;20381;-84
2023/12/07 11:29:24;;;;;;;;;;;;;;;;;;5056884;28;19971;-85
2023/12/07 11:31:51;;;;;;;;;;;;;;;;;;5068096;28;19935;-85
2023/12/07 11:34:17;;;;;;;;;;;;;;;;;;5071266;28;19963;-82
2023/12/07 11:36:43;;;;;;;;;;;;;;;;;;5071477;28;19939;-82
2023/12/07 11:39:11;;;;;;;;;;;;;;;;;;5071861;28;20376;-83
2023/12/07 11:41:37;;;;;;;;;;;;;;;;;;5072299;28;20366;-83
2023/12/07 11:44:03;;;;;;;;;;;;;;;;;;5075173;28;19978;-85
2023/12/07 11:46:30;;;;;;;;;;;;;;;;;;5075627;28;20436;-85
2023/12/07 11:48:56;;;;;;;;;;;;;;;;;;5075293;28;19994;-84
2023/12/07 11:51:22;;;;;;;;;;;;;;;;;;5074104;28;19925;-85
2023/12/07 11:53:50;;;;;;;;;;;;;;;;;;5075149;28;19925;-84
2023/12/07 11:56:20;;;;;;;;;;;;;;;;;;5068892;28;19928;-83
2023/12/07 11:58:46;;;;;;;;;;;;;;;;;;5075122;28;20300;-84
2023/12/07 12:01:12;;;;;;;;;;;;;;;;;;5074340;28;20026;-85
2023/12/07 12:03:38;;;;;;;;;;;;;;;;;;5074990;28;19925;-84
2023/12/07 12:06:05;;;;;;;;;;;;;;;;;;5075134;28;19924;-84
2023/12/07 12:08:31;;;;;;;;;;;;;;;;;;5074609;28;19932;-85
2023/12/07 12:10:58;;;;;;;;;;;;;;;;;;5068450;28;19925;-84
2023/12/07 12:13:24;;;;;;;;;;;;;;;;;;5074211;28;19962;-84
2023/12/07 12:15:50;;;;;;;;;;;;;;;;;;5075204;28;19929;-84
2023/12/07 12:18:16;;;;;;;;;;;;;;;;;;5075050;28;19985;-85
2023/12/07 12:20:43;;;;;;;;;;;;;;;;;;5075345;28;19947;-84
2023/12/07 12:23:09;;;;;;;;;;;;;;;;;;5074117;28;19936;-82
2023/12/07 12:25:35;;;;;;;;;;;;;;;;;;5075337;28;19928;-82
2023/12/07 12:28:02;;;;;;;;;;;;;;;;;;5073544;28;20388;-83
2023/12/07 12:30:28;;;;;;;;;;;;;;;;;;5075142;28;19970;-83
2023/12/07 12:32:54;;;;;;;;;;;;;;;;;;5074093;28;19924;-83
2023/12/07 12:35:20;;;;;;;;;;;;;;;;;;5074767;28;19928;-84
2023/12/07 12:37:48;;;;;;;;;;;;;;;;;;5074306;28;19929;-83
2023/12/07 12:40:15;;;;;;;;;;;;;;;;;;5074974;28;20361;-83
2023/12/07 12:42:42;;;;;;;;;;;;;;;;;;5074568;28;19932;-83
2023/12/07 12:45:08;;;;;;;;;;;;;;;;;;5073989;28;19932;-83
2023/12/07 12:47:34;;;;;;;;;;;;;;;;;;5075123;28;20351;-82
2023/12/07 12:50:00;;;;;;;;;;;;;;;;;;5066254;28;19933;-81
2023/12/07 12:52:27;;;;;;;;;;;;;;;;;;5065382;28;19981;-82
2023/12/07 12:54:53;;;;;;;;;;;;;;;;;;5065475;28;19925;-82
2023/12/07 12:57:19;;;;;;;;;;;;;;;;;;5065672;28;20343;-82
2023/12/07 12:59:45;;;;;;;;;;;;;;;;;;5057484;28;19924;-85
2023/12/07 13:02:12;;;;;;;;;;;;;;;;;;5053177;28;19929;-83
2023/12/07 13:04:38;;;;;;;;;;;;;;;;;;5072794;28;19977;-84
2023/12/07 13:07:04;;;;;;;;;;;;;;;;;;5064214;28;19975;-80
2023/12/07 13:09:30;;;;;;;;;;;;;;;;;;5073608;28;20414;-83
2023/12/07 13:11:57;;;;;;;;;;;;;;;;;;5073705;28;20350;-82
2023/12/07 13:14:23;;;;;;;;;;;;;;;;;;5073019;28;19978;-81
2023/12/07 13:16:49;;;;;;;;;;;;;;;;;;5060405;28;19955;-81
2023/12/07 13:19:16;;;;;;;;;;;;;;;;;;5067513;28;19924;-82
2023/12/07 13:21:42;;;;;;;;;;;;;;;;;;5069407;28;19982;-83
2023/12/07 13:24:12;;;;;;;;;;;;;;;;;;5072601;28;19933;-82
2023/12/07 13:26:38;;;;;;;;;;;;;;;;;;5067289;28;19931;-82
2023/12/07 13:29:04;;;;;;;;;;;;;;;;;;5072713;28;19929;-82
2023/12/07 13:31:31;;;;;;;;;;;;;;;;;;5073043;28;20596;-82
2023/12/07 13:33:57;;;;;;;;;;;;;;;;;;5072931;28;19925;-81
2023/12/07 13:36:25;;;;;;;;;;;;;;;;;;5072568;28;19925;-81
2023/12/07 13:38:51;;;;;;;;;;;;;;;;;;5072745;28;19932;-80
2023/12/07 13:41:18;;;;;;;;;;;;;;;;;;5073575;28;19985;-79
2023/12/07 13:43:44;;;;;;;;;;;;;;;;;;5068006;28;19925;-81
2023/12/07 13:46:10;;;;;;;;;;;;;;;;;;5071487;28;20522;-82
2023/12/07 13:48:37;;;;;;;;;;;;;;;;;;5071466;28;20377;-80
2023/12/07 13:51:04;;;;;;;;;;;;;;;;;;5072921;28;19932;-79
2023/12/07 13:53:30;;;;;;;;;;;;;;;;;;5073277;28;19925;-80
2023/12/07 13:55:57;;;;;;;;;;;;;;;;;;5072378;28;19928;-80
2023/12/07 13:58:23;;;;;;;;;;;;;;;;;;5072772;28;19970;-78
2023/12/07 14:00:49;;;;;;;;;;;;;;;;;;5073040;28;20545;-79
2023/12/07 14:03:16;;;;;;;;;;;;;;;;;;5069580;28;20023;-79
2023/12/07 14:05:42;;;;;;;;;;;;;;;;;;5071891;28;20339;-80
2023/12/07 14:08:09;;;;;;;;;;;;;;;;;;5072601;28;19935;-79
2023/12/07 14:10:35;;;;;;;;;;;;;;;;;;5072923;28;20016;-79
2023/12/07 14:13:02;;;;;;;;;;;;;;;;;;5072878;28;19998;-79
2023/12/07 14:15:28;;;;;;;;;;;;;;;;;;5072733;28;20023;-80
2023/12/07 14:17:54;;;;;;;;;;;;;;;;;;5071734;28;20347;-80
2023/12/07 14:20:24;;;;;;;;;;;;;;;;;;5072918;28;20025;-80
2023/12/07 14:22:50;;;;;;;;;;;;;;;;;;5069129;28;19947;-80
2023/12/07 14:25:17;;;;;;;;;;;;;;;;;;5072733;28;19932;-80
2023/12/07 14:27:44;;;;;;;;;;;;;;;;;;5071712;28;19970;-80
2023/12/07 14:30:11;;;;;;;;;;;;;;;;;;5072348;28;19979;-80
2023/12/07 14:32:37;;;;;;;;;;;;;;;;;;5072171;28;20337;-81
2023/12/07 14:35:05;;;;;;;;;;;;;;;;;;5071672;28;21636;-85
2023/12/07 14:37:32;;;;;;;;;;;;;;;;;;5071699;28;20211;-84
2023/12/07 14:39:58;;;;;;;;;;;;;;;;;;5069394;28;19931;-85
2023/12/07 14:42:24;;;;;;;;;;;;;;;;;;5068842;28;19951;-84
2023/12/07 14:44:50;;;;;;;;;;;;;;;;;;5072464;28;19935;-82
2023/12/07 14:47:17;;;;;;;;;;;;;;;;;;5071689;28;20419;-84
2023/12/07 14:49:43;;;;;;;;;;;;;;;;;;5072153;28;19925;-84
2023/12/07 14:52:09;;;;;;;;;;;;;;;;;;5072353;28;20081;-85
2023/12/07 14:54:36;;;;;;;;;;;;;;;;;;5072446;28;19925;-84
2023/12/07 14:57:04;;;;;;;;;;;;;;;;;;5072386;28;19974;-84
2023/12/07 14:59:30;;;;;;;;;;;;;;;;;;5071468;28;19924;-84
2023/12/07 15:01:56;;;;;;;;;;;;;;;;;;5069058;28;19957;-85
2023/12/07 15:04:22;;;;;;;;;;;;;;;;;;5072515;28;19929;-83
2023/12/07 15:06:49;;;;;;;;;;;;;;;;;;5072390;28;19925;-83
2023/12/07 15:09:15;;;;;;;;;;;;;;;;;;5071075;28;20422;-80
2023/12/07 15:11:41;;;;;;;;;;;;;;;;;;5070498;28;19924;-80
2023/12/07 15:16:48;;;;;;;;;;;;;;;;;;5069261;28;19931;-80
2023/12/07 15:19:15;;;;;;;;;;;;;;;;;;5071526;28;20428;-80
2023/12/07 15:21:41;;;;;;;;;;;;;;;;;;5073517;28;19994;-81
2023/12/07 15:24:07;;;;;;;;;;;;;;;;;;5071617;28;19933;-81
2023/12/07 15:26:34;;;;;;;;;;;;;;;;;;5074326;28;19928;-81
2023/12/07 15:29:00;;;;;;;;;;;;;;;;;;5074771;28;19963;-81
2023/12/07 15:31:26;;;;;;;;;;;;;;;;;;5075206;28;20377;-81
2023/12/07 15:33:52;;;;;;;;;;;;;;;;;;5073645;28;19929;-81
2023/12/07 15:36:19;;;;;;;;;;;;;;;;;;5075420;28;19928;-81
2023/12/07 15:38:45;;;;;;;;;;;;;;;;;;5075983;28;19925;-81
2023/12/07 15:41:11;;;;;;;;;;;;;;;;;;5074052;28;19990;-80
2023/12/07 15:43:37;;;;;;;;;;;;;;;;;;5075745;28;19924;-81
2023/12/07 15:46:04;;;;;;;;;;;;;;;;;;5074968;28;19960;-81
2023/12/07 15:48:30;;;;;;;;;;;;;;;;;;5075981;28;20368;-80
2023/12/07 15:50:56;;;;;;;;;;;;;;;;;;5069974;28;20015;-80
2023/12/07 15:53:23;;;;;;;;;;;;;;;;;;5072801;28;19928;-81
2023/12/07 15:55:49;;;;;;;;;;;;;;;;;;5075496;28;19925;-81
2023/12/07 15:58:17;;;;;;;;;;;;;;;;;;5075759;28;19931;-81
2023/12/07 16:00:44;;;;;;;;;;;;;;;;;;5074558;28;19967;-80
2023/12/07 16:03:10;;;;;;;;;;;;;;;;;;5075171;28;20332;-81
2023/12/07 16:05:36;;;;;;;;;;;;;;;;;;5075451;28;19928;-81
2023/12/07 16:08:02;;;;;;;;;;;;;;;;;;5074123;28;19932;-80
2023/12/07 16:10:29;;;;;;;;;;;;;;;;;;5070162;28;20650;-80
2023/12/07 16:12:55;;;;;;;;;;;;;;;;;;5071471;28;19936;-81
2023/12/07 16:15:21;;;;;;;;;;;;;;;;;;5072700;28;19943;-81
2023/12/07 16:17:48;;;;;;;;;;;;;;;;;;5073087;28;19925;-80
2023/12/07 16:20:16;;;;;;;;;;;;;;;;;;5074454;28;19929;-81
2023/12/07 16:22:42;;;;;;;;;;;;;;;;;;5073374;28;19932;-80
2023/12/07 16:25:09;;;;;;;;;;;;;;;;;;5074708;28;19932;-80
2023/12/07 16:27:35;;;;;;;;;;;;;;;;;;5069093;28;20384;-81
2023/12/07 16:30:01;;;;;;;;;;;;;;;;;;5070668;28;19932;-81
2023/12/07 16:32:27;;;;;;;;;;;;;;;;;;5073360;28;19977;-80
2023/12/07 16:34:54;;;;;;;;;;;;;;;;;;5074450;28;19932;-81
2023/12/07 16:37:20;;;;;;;;;;;;;;;;;;5074681;28;19928;-80
2023/12/07 16:39:46;;;;;;;;;;;;;;;;;;5072725;28;19947;-80
2023/12/07 16:42:12;;;;;;;;;;;;;;;;;;5071514;28;19928;-80